sensor_id;sensor_type;location;lat;lon;timestamp;P1;durP1;ratioP1;P2;durP2;ratioP2
6862;SDS011;3470;48.738;9.616;2023-04-12T09:19:08;7.00;;;5.27;;
6862;SDS011;3470;48.738;9.616;2023-04-12T09:21:34;5.60;;;4.63;;
6862;SDS011;3470;48.738;9.616;2023-04-12T09:24:07;4.80;;;4.30;;
6862;SDS011;3470;48.738;9.616;2023-04-12T09:26:34;5.57;;;4.60;;
6862;SDS011;3470;48.738;9.616;2023-04-12T09:29:01;6.67;;;5.63;;
6862;SDS011;3470;48.738;9.616;2023-04-12T09:31:27;7.20;;;5.70;;
6862;SDS011;3470;48.738;9.616;2023-04-12T09:33:59;8.03;;;5.57;;
6862;SDS011;3470;48.738;9.616;2023-04-12T09:36:36;7.47;;;5.80;;
6862;SDS011;3470;48.738;9.616;2023-04-12T09:39:03;6.93;;;5.47;;
6862;SDS011;3470;48.738;9.616;2023-04-12T09:41:29;6.30;;;5.70;;
6862;SDS011;3470;48.738;9.616;2023-04-12T09:43:59;7.27;;;5.63;;
6862;SDS011;3470;48.738;9.616;2023-04-12T09:46:25;6.33;;;4.93;;
6862;SDS011;3470;48.738;9.616;2023-04-12T09:48:52;6.90;;;5.13;;
6862;SDS011;3470;48.738;9.616;2023-04-12T09:51:28;5.83;;;5.23;;
6862;SDS011;3470;48.738;9.616;2023-04-12T09:54:00;6.57;;;5.10;;
6862;SDS011;3470;48.738;9.616;2023-04-12T09:56:28;6.50;;;5.73;;
6862;SDS011;3470;48.738;9.616;2023-04-12T09:58:56;6.63;;;5.07;;
6862;SDS011;3470;48.738;9.616;2023-04-12T10:01:28;9.30;;;5.80;;
6862;SDS011;3470;48.738;9.616;2023-04-12T10:03:57;8.10;;;5.77;;
6862;SDS011;3470;48.738;9.616;2023-04-12T10:06:23;6.03;;;5.43;;
6862;SDS011;3470;48.738;9.616;2023-04-12T10:08:50;8.40;;;5.73;;
6862;SDS011;3470;48.738;9.616;2023-04-12T10:11:17;7.70;;;5.70;;
6862;SDS011;3470;48.738;9.616;2023-04-12T10:13:43;7.20;;;6.10;;
6862;SDS011;3470;48.738;9.616;2023-04-12T10:16:09;8.23;;;5.93;;
6862;SDS011;3470;48.738;9.616;2023-04-12T10:18:40;7.30;;;6.00;;
6862;SDS011;3470;48.738;9.616;2023-04-12T10:21:07;6.90;;;6.20;;
6862;SDS011;3470;48.738;9.616;2023-04-12T10:23:33;6.80;;;6.10;;
6862;SDS011;3470;48.738;9.616;2023-04-12T10:25:59;9.50;;;6.13;;
6862;SDS011;3470;48.738;9.616;2023-04-12T10:28:28;7.03;;;6.17;;
6862;SDS011;3470;48.738;9.616;2023-04-12T10:30:57;10.13;;;6.07;;
6862;SDS011;3470;48.738;9.616;2023-04-12T10:33:26;9.17;;;5.63;;
6862;SDS011;3470;48.738;9.616;2023-04-12T10:35:55;7.10;;;5.63;;
6862;SDS011;3470;48.738;9.616;2023-04-12T10:38:21;5.90;;;5.30;;
6862;SDS011;3470;48.738;9.616;2023-04-12T10:43:47;7.00;;;5.13;;
6862;SDS011;3470;48.738;9.616;2023-04-12T10:49:07;8.10;;;6.77;;
6862;SDS011;3470;48.738;9.616;2023-04-12T10:51:37;6.93;;;5.47;;
6862;SDS011;3470;48.738;9.616;2023-04-12T10:59:02;8.03;;;4.80;;
6862;SDS011;3470;48.738;9.616;2023-04-12T11:01:35;5.07;;;4.33;;
6862;SDS011;3470;48.738;9.616;2023-04-12T11:04:14;4.80;;;3.77;;
6862;SDS011;3470;48.738;9.616;2023-04-12T11:09:20;4.93;;;3.63;;
6862;SDS011;3470;48.738;9.616;2023-04-12T11:11:54;4.77;;;4.13;;
6862;SDS011;3470;48.738;9.616;2023-04-12T11:14:36;5.47;;;3.20;;
6862;SDS011;3470;48.738;9.616;2023-04-12T11:19:32;3.20;;;1.60;;
6862;SDS011;3470;48.738;9.616;2023-04-12T11:22:06;3.30;;;1.53;;
6862;SDS011;3470;48.738;9.616;2023-04-12T11:24:37;2.47;;;1.30;;
6862;SDS011;3470;48.738;9.616;2023-04-12T11:27:03;3.43;;;1.40;;
6862;SDS011;3470;48.738;9.616;2023-04-12T11:29:29;2.37;;;1.50;;
6862;SDS011;3470;48.738;9.616;2023-04-12T11:31:56;1.43;;;1.03;;
6862;SDS011;3470;48.738;9.616;2023-04-12T11:34:22;1.30;;;1.20;;
6862;SDS011;3470;48.738;9.616;2023-04-12T11:36:52;1.20;;;1.10;;
6862;SDS011;3470;48.738;9.616;2023-04-12T11:39:19;1.73;;;1.47;;
6862;SDS011;3470;48.738;9.616;2023-04-12T11:41:45;2.77;;;1.43;;
6862;SDS011;3470;48.738;9.616;2023-04-12T11:46:47;1.70;;;1.07;;
6862;SDS011;3470;48.738;9.616;2023-04-12T11:49:13;2.10;;;1.20;;
6862;SDS011;3470;48.738;9.616;2023-04-12T11:51:42;1.77;;;1.53;;
6862;SDS011;3470;48.738;9.616;2023-04-12T11:54:09;1.90;;;1.70;;
6862;SDS011;3470;48.738;9.616;2023-04-12T11:56:35;3.63;;;1.50;;
6862;SDS011;3470;48.738;9.616;2023-04-12T11:59:01;1.33;;;1.20;;
6862;SDS011;3470;48.738;9.616;2023-04-12T12:01:27;2.50;;;1.30;;
6862;SDS011;3470;48.738;9.616;2023-04-12T12:03:53;1.47;;;1.10;;
6862;SDS011;3470;48.738;9.616;2023-04-12T12:06:19;1.73;;;1.20;;
6862;SDS011;3470;48.738;9.616;2023-04-12T12:08:45;2.87;;;1.30;;
6862;SDS011;3470;48.738;9.616;2023-04-12T12:11:12;1.20;;;1.10;;
6862;SDS011;3470;48.738;9.616;2023-04-12T12:16:16;1.87;;;1.73;;
6862;SDS011;3470;48.738;9.616;2023-04-12T12:18:47;2.70;;;1.10;;
6862;SDS011;3470;48.738;9.616;2023-04-12T12:21:13;1.40;;;1.10;;
6862;SDS011;3470;48.738;9.616;2023-04-12T12:23:41;1.73;;;1.20;;
6862;SDS011;3470;48.738;9.616;2023-04-12T12:26:07;1.20;;;1.10;;
6862;SDS011;3470;48.738;9.616;2023-04-12T12:28:36;2.00;;;1.10;;
6862;SDS011;3470;48.738;9.616;2023-04-12T12:31:06;1.27;;;1.17;;
6862;SDS011;3470;48.738;9.616;2023-04-12T12:33:40;1.17;;;1.07;;
6862;SDS011;3470;48.738;9.616;2023-04-12T12:36:06;1.10;;;1.00;;
6862;SDS011;3470;48.738;9.616;2023-04-12T12:38:39;2.20;;;1.27;;
6862;SDS011;3470;48.738;9.616;2023-04-12T12:41:20;1.97;;;1.37;;
6862;SDS011;3470;48.738;9.616;2023-04-12T17:30:39;1.63;;;1.47;;
6862;SDS011;3470;48.738;9.616;2023-04-12T17:33:05;3.47;;;2.60;;
6862;SDS011;3470;48.738;9.616;2023-04-12T17:35:31;5.27;;;2.27;;
6862;SDS011;3470;48.738;9.616;2023-04-12T17:37:57;3.10;;;2.60;;
6862;SDS011;3470;48.738;9.616;2023-04-12T17:40:22;3.53;;;2.97;;
6862;SDS011;3470;48.738;9.616;2023-04-12T17:42:48;6.90;;;4.80;;
6862;SDS011;3470;48.738;9.616;2023-04-12T17:45:14;3.90;;;2.90;;
6862;SDS011;3470;48.738;9.616;2023-04-12T17:47:40;3.00;;;2.53;;
6862;SDS011;3470;48.738;9.616;2023-04-12T17:50:06;4.20;;;3.47;;
6862;SDS011;3470;48.738;9.616;2023-04-12T17:52:33;2.13;;;1.93;;
6862;SDS011;3470;48.738;9.616;2023-04-12T17:55:00;1.47;;;1.37;;
6862;SDS011;3470;48.738;9.616;2023-04-12T17:57:26;1.70;;;1.60;;
6862;SDS011;3470;48.738;9.616;2023-04-12T17:59:52;2.97;;;1.50;;
6862;SDS011;3470;48.738;9.616;2023-04-12T18:02:18;3.60;;;1.80;;
6862;SDS011;3470;48.738;9.616;2023-04-12T18:04:43;1.70;;;1.60;;
6862;SDS011;3470;48.738;9.616;2023-04-12T18:07:09;2.40;;;1.50;;
6862;SDS011;3470;48.738;9.616;2023-04-12T18:09:35;2.43;;;1.53;;
6862;SDS011;3470;48.738;9.616;2023-04-12T18:12:02;2.47;;;1.50;;
6862;SDS011;3470;48.738;9.616;2023-04-12T18:14:29;2.57;;;1.83;;
6862;SDS011;3470;48.738;9.616;2023-04-12T18:16:55;2.27;;;1.83;;
6862;SDS011;3470;48.738;9.616;2023-04-12T18:19:20;2.47;;;1.60;;
6862;SDS011;3470;48.738;9.616;2023-04-12T18:21:46;2.87;;;2.43;;
6862;SDS011;3470;48.738;9.616;2023-04-12T18:24:12;7.17;;;4.70;;
6862;SDS011;3470;48.738;9.616;2023-04-12T18:26:40;4.77;;;3.93;;
6862;SDS011;3470;48.738;9.616;2023-04-12T18:29:05;6.13;;;4.20;;
6862;SDS011;3470;48.738;9.616;2023-04-12T18:31:31;5.40;;;4.63;;
6862;SDS011;3470;48.738;9.616;2023-04-12T18:33:57;3.60;;;2.80;;
6862;SDS011;3470;48.738;9.616;2023-04-12T18:36:24;2.87;;;2.47;;
6862;SDS011;3470;48.738;9.616;2023-04-12T18:38:51;5.07;;;4.13;;
6862;SDS011;3470;48.738;9.616;2023-04-12T18:41:16;6.27;;;4.10;;
6862;SDS011;3470;48.738;9.616;2023-04-12T18:43:42;5.23;;;2.90;;
6862;SDS011;3470;48.738;9.616;2023-04-12T18:46:13;2.83;;;2.60;;
6862;SDS011;3470;48.738;9.616;2023-04-12T18:48:42;2.67;;;2.47;;
6862;SDS011;3470;48.738;9.616;2023-04-12T18:51:12;3.27;;;2.97;;
6862;SDS011;3470;48.738;9.616;2023-04-12T18:53:38;2.10;;;1.90;;
6862;SDS011;3470;48.738;9.616;2023-04-12T18:56:10;2.70;;;1.70;;
6862;SDS011;3470;48.738;9.616;2023-04-12T18:58:36;1.50;;;1.40;;
6862;SDS011;3470;48.738;9.616;2023-04-12T19:01:03;1.40;;;1.30;;
6862;SDS011;3470;48.738;9.616;2023-04-12T19:03:29;1.67;;;1.57;;
6862;SDS011;3470;48.738;9.616;2023-04-12T19:05:55;2.40;;;1.83;;
6862;SDS011;3470;48.738;9.616;2023-04-12T19:08:21;5.20;;;3.23;;
6862;SDS011;3470;48.738;9.616;2023-04-12T19:10:48;3.73;;;2.77;;
6862;SDS011;3470;48.738;9.616;2023-04-12T19:13:15;2.93;;;2.73;;
6862;SDS011;3470;48.738;9.616;2023-04-12T19:15:40;2.33;;;1.67;;
6862;SDS011;3470;48.738;9.616;2023-04-12T19:18:06;2.23;;;2.10;;
6862;SDS011;3470;48.738;9.616;2023-04-12T19:20:32;1.60;;;1.50;;
6862;SDS011;3470;48.738;9.616;2023-04-12T19:22:58;2.10;;;1.90;;
6862;SDS011;3470;48.738;9.616;2023-04-12T19:25:23;1.70;;;1.60;;
6862;SDS011;3470;48.738;9.616;2023-04-12T19:27:55;1.70;;;1.60;;
6862;SDS011;3470;48.738;9.616;2023-04-12T19:30:22;1.70;;;1.40;;
6862;SDS011;3470;48.738;9.616;2023-04-12T19:32:48;2.40;;;2.20;;
6862;SDS011;3470;48.738;9.616;2023-04-12T19:35:13;2.50;;;1.47;;
6862;SDS011;3470;48.738;9.616;2023-04-12T19:37:39;4.40;;;3.60;;
6862;SDS011;3470;48.738;9.616;2023-04-12T19:40:06;2.10;;;1.70;;
6862;SDS011;3470;48.738;9.616;2023-04-12T19:42:32;1.60;;;1.50;;
6862;SDS011;3470;48.738;9.616;2023-04-12T19:44:58;1.63;;;1.40;;
6862;SDS011;3470;48.738;9.616;2023-04-12T19:47:24;1.60;;;1.50;;
6862;SDS011;3470;48.738;9.616;2023-04-12T19:49:51;1.73;;;1.33;;
6862;SDS011;3470;48.738;9.616;2023-04-12T19:52:17;1.53;;;1.43;;
6862;SDS011;3470;48.738;9.616;2023-04-12T19:54:44;2.73;;;1.40;;
6862;SDS011;3470;48.738;9.616;2023-04-12T19:57:10;1.57;;;1.47;;
6862;SDS011;3470;48.738;9.616;2023-04-12T19:59:37;1.70;;;1.60;;
6862;SDS011;3470;48.738;9.616;2023-04-12T20:02:03;1.80;;;1.67;;
6862;SDS011;3470;48.738;9.616;2023-04-12T20:04:32;2.27;;;1.73;;
6862;SDS011;3470;48.738;9.616;2023-04-12T20:06:58;1.70;;;1.60;;
6862;SDS011;3470;48.738;9.616;2023-04-12T20:09:24;1.60;;;1.50;;
6862;SDS011;3470;48.738;9.616;2023-04-12T20:11:50;1.97;;;1.70;;
6862;SDS011;3470;48.738;9.616;2023-04-12T20:14:16;2.20;;;2.00;;
6862;SDS011;3470;48.738;9.616;2023-04-12T20:16:42;2.23;;;1.87;;
6862;SDS011;3470;48.738;9.616;2023-04-12T20:19:09;3.90;;;3.40;;
6862;SDS011;3470;48.738;9.616;2023-04-12T20:21:35;4.87;;;3.73;;
6862;SDS011;3470;48.738;9.616;2023-04-12T20:24:02;4.30;;;3.77;;
6862;SDS011;3470;48.738;9.616;2023-04-12T20:26:31;2.70;;;2.30;;
6862;SDS011;3470;48.738;9.616;2023-04-12T20:28:58;2.80;;;1.70;;
6862;SDS011;3470;48.738;9.616;2023-04-12T20:31:24;3.10;;;2.23;;
6862;SDS011;3470;48.738;9.616;2023-04-12T20:33:51;2.00;;;1.30;;
6862;SDS011;3470;48.738;9.616;2023-04-12T20:36:21;1.00;;;0.90;;
6862;SDS011;3470;48.738;9.616;2023-04-12T20:38:48;1.77;;;1.47;;
6862;SDS011;3470;48.738;9.616;2023-04-12T20:41:14;2.40;;;1.47;;
6862;SDS011;3470;48.738;9.616;2023-04-12T20:43:40;1.30;;;1.20;;
6862;SDS011;3470;48.738;9.616;2023-04-12T20:46:11;1.30;;;1.20;;
6862;SDS011;3470;48.738;9.616;2023-04-12T20:48:44;1.30;;;1.20;;
6862;SDS011;3470;48.738;9.616;2023-04-12T20:51:12;2.63;;;2.07;;
6862;SDS011;3470;48.738;9.616;2023-04-12T20:53:39;2.30;;;1.57;;
6862;SDS011;3470;48.738;9.616;2023-04-12T20:56:07;1.03;;;1.03;;
6862;SDS011;3470;48.738;9.616;2023-04-12T20:58:33;1.50;;;1.30;;
6862;SDS011;3470;48.738;9.616;2023-04-12T21:01:02;1.50;;;1.40;;
6862;SDS011;3470;48.738;9.616;2023-04-12T21:03:32;1.30;;;1.20;;
6862;SDS011;3470;48.738;9.616;2023-04-12T21:06:00;1.60;;;1.50;;
6862;SDS011;3470;48.738;9.616;2023-04-12T21:08:29;3.07;;;1.60;;
6862;SDS011;3470;48.738;9.616;2023-04-12T21:10:55;1.30;;;1.20;;
6862;SDS011;3470;48.738;9.616;2023-04-12T21:13:22;1.53;;;1.43;;
6862;SDS011;3470;48.738;9.616;2023-04-12T21:15:50;1.77;;;1.40;;
6862;SDS011;3470;48.738;9.616;2023-04-12T21:18:16;1.37;;;1.20;;
6862;SDS011;3470;48.738;9.616;2023-04-12T21:20:44;1.43;;;1.20;;
6862;SDS011;3470;48.738;9.616;2023-04-12T21:23:11;1.27;;;1.17;;
6862;SDS011;3470;48.738;9.616;2023-04-12T21:25:40;1.43;;;1.30;;
6862;SDS011;3470;48.738;9.616;2023-04-12T21:28:07;2.30;;;1.20;;
6862;SDS011;3470;48.738;9.616;2023-04-12T21:30:32;1.60;;;1.00;;
6862;SDS011;3470;48.738;9.616;2023-04-12T21:32:58;2.83;;;1.20;;
6862;SDS011;3470;48.738;9.616;2023-04-12T21:35:26;0.97;;;0.87;;
6862;SDS011;3470;48.738;9.616;2023-04-12T21:37:52;0.73;;;0.73;;
6862;SDS011;3470;48.738;9.616;2023-04-12T21:40:17;0.63;;;0.60;;
6862;SDS011;3470;48.738;9.616;2023-04-12T21:42:43;0.90;;;0.90;;
6862;SDS011;3470;48.738;9.616;2023-04-12T21:45:09;0.63;;;0.63;;
6862;SDS011;3470;48.738;9.616;2023-04-12T21:47:37;0.70;;;0.70;;
6862;SDS011;3470;48.738;9.616;2023-04-12T21:50:04;1.60;;;0.80;;
6862;SDS011;3470;48.738;9.616;2023-04-12T21:52:31;0.60;;;0.60;;
6862;SDS011;3470;48.738;9.616;2023-04-12T21:54:57;0.80;;;0.80;;
6862;SDS011;3470;48.738;9.616;2023-04-12T21:57:23;0.70;;;0.70;;
6862;SDS011;3470;48.738;9.616;2023-04-12T21:59:48;1.27;;;0.70;;
6862;SDS011;3470;48.738;9.616;2023-04-12T22:02:14;0.70;;;0.70;;
6862;SDS011;3470;48.738;9.616;2023-04-12T22:04:39;0.70;;;0.70;;
6862;SDS011;3470;48.738;9.616;2023-04-12T22:07:06;0.90;;;0.90;;
6862;SDS011;3470;48.738;9.616;2023-04-12T22:09:36;0.73;;;0.73;;
6862;SDS011;3470;48.738;9.616;2023-04-12T22:12:02;0.90;;;0.90;;
6862;SDS011;3470;48.738;9.616;2023-04-12T22:14:30;0.90;;;0.90;;
6862;SDS011;3470;48.738;9.616;2023-04-12T22:16:57;1.43;;;0.87;;
6862;SDS011;3470;48.738;9.616;2023-04-12T22:19:23;0.93;;;0.87;;
6862;SDS011;3470;48.738;9.616;2023-04-12T22:21:49;0.90;;;0.90;;
6862;SDS011;3470;48.738;9.616;2023-04-12T22:24:14;1.53;;;1.10;;
6862;SDS011;3470;48.738;9.616;2023-04-12T22:26:40;1.50;;;1.00;;
